createdAt,value
2018-10-12T00:00:02.681Z,1028.75085877
2018-10-12T00:00:15.093Z,1028.75085877
2018-10-12T00:00:27.519Z,1028.75085877
2018-10-12T00:00:39.945Z,1028.75085877
2018-10-12T00:00:52.347Z,1028.75085877
2018-10-12T00:01:04.780Z,1028.78472265
2018-10-12T00:01:17.175Z,1028.78472265
2018-10-12T00:01:29.592Z,1028.78472265
2018-10-12T00:01:42.045Z,1028.78472265
2018-10-12T00:01:54.439Z,1028.78472265
2018-10-12T00:02:06.860Z,1028.78472265
2018-10-12T00:02:19.252Z,1028.78472265
2018-10-12T00:02:31.669Z,1028.78472265
2018-10-12T00:02:44.077Z,1028.78472265
2018-10-12T00:02:56.478Z,1028.78472265
2018-10-12T00:03:08.866Z,1028.75085877
2018-10-12T00:03:21.253Z,1028.75085877
2018-10-12T00:03:33.635Z,1028.75085877
2018-10-12T00:03:46.067Z,1028.75085877
2018-10-12T00:03:58.594Z,1028.75085877
2018-10-12T00:04:11.083Z,1028.78472265
2018-10-12T00:04:23.534Z,1028.78472265
2018-10-12T00:04:35.976Z,1028.78472265
2018-10-12T00:04:48.374Z,1028.78472265
2018-10-12T00:05:00.781Z,1028.78472265
2018-10-12T00:05:13.200Z,1028.78472265
2018-10-12T00:05:25.601Z,1028.78472265
2018-10-12T00:05:38.024Z,1028.78472265
2018-10-12T00:05:50.438Z,1028.78472265
2018-10-12T00:06:02.888Z,1028.64926712
2018-10-12T00:06:15.270Z,1028.64926712
2018-10-12T00:06:27.741Z,1028.64926712
2018-10-12T00:06:40.132Z,1028.64926712
2018-10-12T00:06:52.530Z,1028.64926712
2018-10-12T00:07:04.929Z,1028.75085877
2018-10-12T00:07:17.320Z,1028.75085877
2018-10-12T00:07:29.719Z,1028.75085877
2018-10-12T00:07:42.118Z,1028.75085877
2018-10-12T00:07:54.569Z,1028.75085877
2018-10-12T00:08:06.962Z,1028.75085877
2018-10-12T00:08:19.351Z,1028.75085877
2018-10-12T00:08:31.745Z,1028.75085877
2018-10-12T00:08:44.124Z,1028.75085877
2018-10-12T00:08:56.523Z,1028.75085877
2018-10-12T00:09:08.922Z,1028.75085877
2018-10-12T00:09:21.299Z,1028.75085877
2018-10-12T00:09:33.694Z,1028.75085877
2018-10-12T00:09:46.090Z,1028.75085877
2018-10-12T00:09:58.478Z,1028.75085877
2018-10-12T00:10:11.225Z,1028.75085877
2018-10-12T00:10:23.643Z,1028.75085877
2018-10-12T00:10:36.038Z,1028.75085877
2018-10-12T00:10:48.540Z,1028.75085877
2018-10-12T00:11:00.945Z,1028.71699489
2018-10-12T00:11:13.364Z,1028.71699489
2018-10-12T00:11:25.764Z,1028.71699489
2018-10-12T00:11:38.171Z,1028.71699489
2018-10-12T00:11:50.565Z,1028.71699489
2018-10-12T00:12:02.956Z,1028.75085877
2018-10-12T00:12:15.338Z,1028.75085877
2018-10-12T00:12:27.724Z,1028.75085877
2018-10-12T00:12:40.345Z,1028.75085877
2018-10-12T00:12:52.804Z,1028.75085877
2018-10-12T00:13:05.188Z,1028.64926712
2018-10-12T00:13:17.589Z,1028.64926712
2018-10-12T00:13:29.976Z,1028.64926712
2018-10-12T00:13:42.378Z,1028.64926712
2018-10-12T00:13:54.761Z,1028.64926712
2018-10-12T00:14:07.199Z,1028.64926712
2018-10-12T00:14:19.600Z,1028.64926712
2018-10-12T00:14:31.997Z,1028.64926712
2018-10-12T00:14:44.389Z,1028.64926712
2018-10-12T00:14:57.240Z,1028.64926712
2018-10-12T00:15:09.705Z,1028.61540324
2018-10-12T00:15:22.093Z,1028.61540324
2018-10-12T00:15:34.470Z,1028.61540324
2018-10-12T00:15:46.860Z,1028.61540324
2018-10-12T00:15:59.259Z,1028.75085877
2018-10-12T00:16:11.665Z,1028.75085877
2018-10-12T00:16:24.182Z,1028.75085877
2018-10-12T00:16:36.590Z,1028.75085877
2018-10-12T00:16:48.996Z,1028.75085877
2018-10-12T00:17:01.419Z,1028.64926712
2018-10-12T00:17:13.840Z,1028.64926712
2018-10-12T00:17:26.481Z,1028.64926712
2018-10-12T00:17:38.902Z,1028.64926712
2018-10-12T00:17:51.313Z,1028.64926712
2018-10-12T00:18:03.704Z,1028.64926712
2018-10-12T00:18:16.123Z,1028.64926712
2018-10-12T00:18:28.534Z,1028.64926712
2018-10-12T00:18:40.928Z,1028.64926712
2018-10-12T00:18:53.366Z,1028.64926712
2018-10-12T00:19:05.772Z,1028.71699489
2018-10-12T00:19:18.414Z,1028.71699489
2018-10-12T00:19:30.815Z,1028.71699489
2018-10-12T00:19:43.224Z,1028.71699489
2018-10-12T00:19:55.659Z,1028.71699489
2018-10-12T00:20:08.066Z,1028.71699489
2018-10-12T00:20:20.466Z,1028.71699489
2018-10-12T00:20:33.265Z,1028.71699489
2018-10-12T00:20:45.789Z,1028.71699489
2018-10-12T00:20:58.176Z,1028.71699489
2018-10-12T00:21:10.584Z,1028.75085877
2018-10-12T00:21:22.992Z,1028.75085877
2018-10-12T00:21:35.370Z,1028.75085877
2018-10-12T00:21:47.745Z,1028.75085877
2018-10-12T00:22:00.143Z,1028.61540324
2018-10-12T00:22:12.591Z,1028.61540324
2018-10-12T00:22:24.999Z,1028.61540324
2018-10-12T00:22:37.392Z,1028.61540324
2018-10-12T00:22:49.790Z,1028.61540324
2018-10-12T00:23:02.195Z,1028.75085877
2018-10-12T00:23:14.671Z,1028.75085877
2018-10-12T00:23:27.060Z,1028.75085877
2018-10-12T00:23:39.441Z,1028.75085877
2018-10-12T00:23:51.828Z,1028.75085877
2018-10-12T00:24:04.227Z,1028.75085877
2018-10-12T00:24:16.792Z,1028.75085877
2018-10-12T00:24:29.194Z,1028.75085877
2018-10-12T00:24:41.678Z,1028.75085877
2018-10-12T00:24:54.087Z,1028.75085877
2018-10-12T00:25:06.673Z,1028.61540324
2018-10-12T00:25:19.083Z,1028.61540324
2018-10-12T00:25:31.484Z,1028.61540324
2018-10-12T00:25:43.888Z,1028.61540324
2018-10-12T00:25:56.325Z,1028.61540324
2018-10-12T00:26:08.736Z,1028.71699489
2018-10-12T00:26:21.138Z,1028.71699489
2018-10-12T00:26:33.573Z,1028.71699489
2018-10-12T00:26:46.500Z,1028.71699489
2018-10-12T00:26:59.077Z,1028.75085877
2018-10-12T00:27:11.481Z,1028.75085877
2018-10-12T00:27:25.016Z,1028.75085877
2018-10-12T00:27:37.472Z,1028.75085877
2018-10-12T00:27:49.868Z,1028.75085877
2018-10-12T00:28:02.264Z,1028.75085877
2018-10-12T00:28:14.666Z,1028.75085877
2018-10-12T00:28:27.053Z,1028.75085877
2018-10-12T00:28:39.452Z,1028.75085877
2018-10-12T00:28:51.932Z,1028.75085877
2018-10-12T00:29:04.329Z,1028.75085877
2018-10-12T00:29:16.725Z,1028.75085877
2018-10-12T00:29:29.128Z,1028.75085877
2018-10-12T00:29:41.539Z,1028.75085877
2018-10-12T00:29:54.897Z,1028.75085877
2018-10-12T00:30:07.349Z,1028.64926712
2018-10-12T00:30:19.752Z,1028.64926712
2018-10-12T00:30:32.157Z,1028.64926712
2018-10-12T00:30:44.550Z,1028.64926712
2018-10-12T00:30:56.959Z,1028.64926712
2018-10-12T00:31:09.577Z,1028.71699489
2018-10-12T00:31:22.120Z,1028.71699489
2018-10-12T00:31:34.520Z,1028.71699489
2018-10-12T00:31:46.937Z,1028.71699489
2018-10-12T00:31:59.328Z,1028.71699489
2018-10-12T00:32:11.722Z,1028.71699489
2018-10-12T00:32:24.123Z,1028.71699489
2018-10-12T00:32:36.520Z,1028.71699489
2018-10-12T00:32:48.918Z,1028.71699489
2018-10-12T00:33:01.303Z,1028.64926712
2018-10-12T00:33:13.704Z,1028.64926712
2018-10-12T00:33:26.138Z,1028.64926712
2018-10-12T00:33:38.529Z,1028.64926712
2018-10-12T00:33:50.920Z,1028.64926712
2018-10-12T00:34:03.322Z,1028.75085877
2018-10-12T00:34:15.731Z,1028.75085877
2018-10-12T00:34:28.149Z,1028.75085877
2018-10-12T00:34:40.543Z,1028.75085877
2018-10-12T00:34:53.036Z,1028.75085877
2018-10-12T00:35:05.421Z,1028.61540324
2018-10-12T00:35:17.806Z,1028.61540324
2018-10-12T00:35:30.227Z,1028.61540324
2018-10-12T00:35:42.623Z,1028.61540324
2018-10-12T00:35:55.076Z,1028.61540324
2018-10-12T00:36:07.478Z,1028.71699489
2018-10-12T00:36:19.870Z,1028.71699489
2018-10-12T00:36:32.248Z,1028.71699489
2018-10-12T00:36:44.633Z,1028.71699489
2018-10-12T00:36:57.050Z,1028.71699489
2018-10-12T00:37:09.436Z,1028.61540324
2018-10-12T00:37:21.872Z,1028.61540324
2018-10-12T00:37:34.268Z,1028.61540324
2018-10-12T00:37:46.690Z,1028.61540324
2018-10-12T00:37:59.105Z,1028.71699489
2018-10-12T00:38:11.503Z,1028.71699489
2018-10-12T00:38:23.963Z,1028.71699489
2018-10-12T00:38:36.430Z,1028.71699489
2018-10-12T00:38:48.825Z,1028.71699489
2018-10-12T00:39:01.231Z,1028.75085877
2018-10-12T00:39:13.648Z,1028.75085877
2018-10-12T00:39:26.059Z,1028.75085877
2018-10-12T00:39:38.964Z,1028.75085877
2018-10-12T00:39:51.361Z,1028.75085877
2018-10-12T00:40:03.781Z,1028.75085877
2018-10-12T00:40:16.225Z,1028.75085877
2018-10-12T00:40:28.614Z,1028.75085877
2018-10-12T00:40:40.995Z,1028.75085877
2018-10-12T00:40:53.389Z,1028.75085877
2018-10-12T00:41:05.813Z,1028.75085877
2018-10-12T00:41:18.236Z,1028.75085877
2018-10-12T00:41:30.624Z,1028.75085877
2018-10-12T00:41:43.161Z,1028.75085877
2018-10-12T00:41:55.551Z,1028.75085877
2018-10-12T00:42:07.928Z,1028.75085877
2018-10-12T00:42:20.412Z,1028.75085877
2018-10-12T00:42:32.817Z,1028.75085877
2018-10-12T00:42:45.236Z,1028.75085877
2018-10-12T00:42:57.647Z,1028.75085877
2018-10-12T00:43:10.072Z,1028.71699489
2018-10-12T00:43:22.595Z,1028.71699489
2018-10-12T00:43:35.027Z,1028.71699489
2018-10-12T00:43:47.433Z,1028.71699489
2018-10-12T00:43:59.837Z,1028.81858653
2018-10-12T00:44:12.240Z,1028.81858653
2018-10-12T00:44:24.677Z,1028.81858653
2018-10-12T00:44:37.247Z,1028.81858653
2018-10-12T00:44:49.844Z,1028.81858653
2018-10-12T00:45:02.288Z,1028.78472265
2018-10-12T00:45:14.696Z,1028.78472265
2018-10-12T00:45:27.098Z,1028.78472265
2018-10-12T00:45:39.478Z,1028.78472265
2018-10-12T00:45:51.871Z,1028.78472265
2018-10-12T00:46:04.264Z,1028.75085877
2018-10-12T00:46:16.663Z,1028.75085877
2018-10-12T00:46:29.090Z,1028.75085877
2018-10-12T00:46:41.515Z,1028.75085877
2018-10-12T00:46:53.900Z,1028.75085877
2018-10-12T00:47:06.320Z,1028.75085877
2018-10-12T00:47:18.792Z,1028.75085877
2018-10-12T00:47:31.259Z,1028.75085877
2018-10-12T00:47:43.668Z,1028.75085877
2018-10-12T00:47:56.084Z,1028.75085877
2018-10-12T00:48:08.496Z,1028.78472265
2018-10-12T00:48:20.878Z,1028.78472265
2018-10-12T00:48:33.273Z,1028.78472265
2018-10-12T00:48:45.812Z,1028.78472265
2018-10-12T00:48:58.222Z,1028.78472265
2018-10-12T00:49:10.604Z,1028.85245041
2018-10-12T00:49:22.997Z,1028.85245041
2018-10-12T00:49:35.831Z,1028.85245041
2018-10-12T00:49:49.345Z,1028.85245041
2018-10-12T00:50:02.817Z,1028.75085877
2018-10-12T00:50:15.224Z,1028.75085877
2018-10-12T00:50:27.636Z,1028.75085877
2018-10-12T00:50:40.042Z,1028.75085877
2018-10-12T00:50:52.457Z,1028.75085877
2018-10-12T00:51:04.877Z,1028.81858653
2018-10-12T00:51:17.274Z,1028.81858653
2018-10-12T00:51:29.714Z,1028.81858653
2018-10-12T00:51:42.163Z,1028.81858653
2018-10-12T00:51:54.570Z,1028.81858653
2018-10-12T00:52:06.982Z,1028.75085877
2018-10-12T00:52:19.389Z,1028.75085877
2018-10-12T00:52:31.824Z,1028.75085877
2018-10-12T00:52:44.211Z,1028.75085877
2018-10-12T00:52:56.601Z,1028.75085877
2018-10-12T00:53:09.010Z,1028.85245041
2018-10-12T00:53:21.411Z,1028.85245041
2018-10-12T00:53:33.816Z,1028.85245041
2018-10-12T00:53:46.222Z,1028.85245041
2018-10-12T00:53:58.631Z,1028.71699489
2018-10-12T00:54:11.063Z,1028.71699489
2018-10-12T00:54:23.469Z,1028.71699489
2018-10-12T00:54:35.923Z,1028.71699489
2018-10-12T00:54:48.310Z,1028.71699489
2018-10-12T00:55:00.712Z,1028.81858653
2018-10-12T00:55:13.144Z,1028.81858653
2018-10-12T00:55:25.588Z,1028.81858653
2018-10-12T00:55:37.989Z,1028.81858653
2018-10-12T00:55:50.739Z,1028.81858653
2018-10-12T00:56:03.156Z,1028.81858653
2018-10-12T00:56:15.626Z,1028.81858653
2018-10-12T00:56:28.043Z,1028.81858653
2018-10-12T00:56:40.446Z,1028.81858653
2018-10-12T00:56:52.827Z,1028.81858653
2018-10-12T00:57:05.235Z,1028.81858653
2018-10-12T00:57:17.636Z,1028.81858653
2018-10-12T00:57:30.032Z,1028.81858653
2018-10-12T00:57:42.408Z,1028.81858653
2018-10-12T00:57:54.790Z,1028.81858653
2018-10-12T00:58:07.324Z,1028.81858653
2018-10-12T00:58:19.720Z,1028.81858653
2018-10-12T00:58:32.143Z,1028.81858653
2018-10-12T00:58:44.661Z,1028.81858653
2018-10-12T00:58:57.060Z,1028.81858653
2018-10-12T00:59:09.457Z,1028.78472265
2018-10-12T00:59:21.881Z,1028.78472265
2018-10-12T00:59:34.269Z,1028.78472265
2018-10-12T00:59:46.666Z,1028.78472265
2018-10-12T00:59:59.076Z,1028.78472265
2018-10-12T01:00:11.499Z,1028.75085877
2018-10-12T01:00:23.921Z,1028.75085877
2018-10-12T01:00:36.335Z,1028.75085877
2018-10-12T01:00:48.802Z,1028.75085877
2018-10-12T01:01:01.220Z,1028.75085877
2018-10-12T01:01:13.635Z,1028.75085877
2018-10-12T01:01:26.058Z,1028.75085877
2018-10-12T01:01:38.467Z,1028.75085877
2018-10-12T01:01:50.871Z,1028.75085877
2018-10-12T01:02:03.265Z,1028.81858653
2018-10-12T01:02:15.667Z,1028.81858653
2018-10-12T01:02:28.096Z,1028.81858653
2018-10-12T01:02:40.568Z,1028.81858653
2018-10-12T01:02:52.988Z,1028.81858653
2018-10-12T01:03:05.598Z,1028.81858653
2018-10-12T01:03:18.012Z,1028.81858653
2018-10-12T01:03:30.418Z,1028.81858653
2018-10-12T01:03:42.803Z,1028.81858653
2018-10-12T01:03:55.213Z,1028.81858653
2018-10-12T01:04:07.719Z,1028.71699489
2018-10-12T01:04:20.122Z,1028.71699489
2018-10-12T01:04:32.583Z,1028.71699489
2018-10-12T01:04:45.339Z,1028.71699489
2018-10-12T01:04:57.764Z,1028.71699489
2018-10-12T01:05:10.201Z,1028.85245041
2018-10-12T01:05:22.615Z,1028.85245041
2018-10-12T01:05:35.032Z,1028.85245041
2018-10-12T01:05:47.422Z,1028.85245041
2018-10-12T01:05:59.844Z,1028.81858653
2018-10-12T01:06:12.249Z,1028.81858653
2018-10-12T01:06:24.646Z,1028.81858653
2018-10-12T01:06:37.648Z,1028.81858653
2018-10-12T01:06:51.535Z,1028.81858653
2018-10-12T01:07:03.930Z,1028.81858653
2018-10-12T01:07:16.398Z,1028.81858653
2018-10-12T01:07:28.799Z,1028.81858653
2018-10-12T01:07:41.210Z,1028.81858653
2018-10-12T01:07:53.615Z,1028.81858653
2018-10-12T01:08:06.004Z,1028.85245041
2018-10-12T01:08:18.413Z,1028.85245041
2018-10-12T01:08:30.824Z,1028.85245041
2018-10-12T01:08:43.280Z,1028.85245041
2018-10-12T01:08:55.685Z,1028.85245041
2018-10-12T01:09:08.080Z,1028.88631429
2018-10-12T01:09:20.537Z,1028.88631429
2018-10-12T01:09:32.946Z,1028.88631429
2018-10-12T01:09:45.350Z,1028.88631429
2018-10-12T01:09:57.732Z,1028.88631429
2018-10-12T01:10:10.136Z,1028.81858653
2018-10-12T01:10:22.536Z,1028.81858653
2018-10-12T01:10:34.950Z,1028.81858653
2018-10-12T01:10:47.360Z,1028.81858653
2018-10-12T01:10:59.755Z,1028.85245041
2018-10-12T01:11:12.158Z,1028.85245041
2018-10-12T01:11:24.558Z,1028.85245041
2018-10-12T01:11:36.952Z,1028.85245041
2018-10-12T01:11:49.369Z,1028.85245041
2018-10-12T01:12:01.846Z,1028.88631429
2018-10-12T01:12:15.129Z,1028.88631429
2018-10-12T01:12:28.406Z,1028.88631429
2018-10-12T01:12:41.093Z,1028.88631429
2018-10-12T01:12:53.492Z,1028.88631429
2018-10-12T01:13:05.881Z,1028.85245041
2018-10-12T01:13:18.291Z,1028.85245041
2018-10-12T01:13:30.704Z,1028.85245041
2018-10-12T01:13:43.103Z,1028.85245041
2018-10-12T01:13:55.504Z,1028.85245041
2018-10-12T01:14:07.902Z,1028.85245041
2018-10-12T01:14:20.302Z,1028.85245041
2018-10-12T01:14:32.700Z,1028.85245041
2018-10-12T01:14:45.105Z,1028.85245041
2018-10-12T01:14:57.511Z,1028.85245041
2018-10-12T01:15:09.959Z,1028.85245041
2018-10-12T01:15:22.377Z,1028.85245041
2018-10-12T01:15:34.802Z,1028.85245041
2018-10-12T01:15:47.202Z,1028.85245041
2018-10-12T01:15:59.595Z,1028.85245041
2018-10-12T01:16:11.997Z,1028.85245041
2018-10-12T01:16:24.400Z,1028.85245041
2018-10-12T01:16:36.801Z,1028.85245041
2018-10-12T01:16:49.194Z,1028.85245041
2018-10-12T01:17:01.586Z,1028.92017817
2018-10-12T01:17:13.975Z,1028.92017817
2018-10-12T01:17:26.537Z,1028.92017817
2018-10-12T01:17:38.935Z,1028.92017817
2018-10-12T01:17:51.332Z,1028.92017817
2018-10-12T01:18:03.735Z,1028.92017817
2018-10-12T01:18:16.145Z,1028.92017817
2018-10-12T01:18:28.549Z,1028.92017817
2018-10-12T01:18:40.924Z,1028.92017817
2018-10-12T01:18:53.324Z,1028.92017817
2018-10-12T01:19:05.725Z,1028.85245041
2018-10-12T01:19:18.259Z,1028.85245041
2018-10-12T01:19:30.643Z,1028.85245041
2018-10-12T01:19:43.022Z,1028.85245041
2018-10-12T01:19:55.426Z,1028.85245041
2018-10-12T01:20:07.838Z,1028.85245041
2018-10-12T01:20:20.219Z,1028.85245041
2018-10-12T01:20:32.804Z,1028.85245041
2018-10-12T01:20:45.334Z,1028.85245041
2018-10-12T01:20:57.864Z,1028.85245041
2018-10-12T01:21:10.245Z,1028.85245041
2018-10-12T01:21:22.773Z,1028.85245041
2018-10-12T01:21:35.275Z,1028.85245041
2018-10-12T01:21:47.676Z,1028.85245041
2018-10-12T01:22:00.064Z,1028.88631429
2018-10-12T01:22:12.733Z,1028.88631429
2018-10-12T01:22:25.129Z,1028.88631429
2018-10-12T01:22:37.535Z,1028.88631429
2018-10-12T01:22:49.956Z,1028.88631429
2018-10-12T01:23:02.386Z,1028.95404206
2018-10-12T01:23:14.786Z,1028.95404206
2018-10-12T01:23:27.217Z,1028.95404206
2018-10-12T01:23:39.599Z,1028.95404206
2018-10-12T01:23:52.164Z,1028.95404206
2018-10-12T01:24:04.630Z,1028.88631429
2018-10-12T01:24:17.157Z,1028.88631429
2018-10-12T01:24:29.546Z,1028.88631429
2018-10-12T01:24:42.038Z,1028.88631429
2018-10-12T01:24:54.444Z,1028.88631429
2018-10-12T01:25:07.007Z,1028.85245041
2018-10-12T01:25:19.459Z,1028.85245041
2018-10-12T01:25:31.864Z,1028.85245041
2018-10-12T01:25:44.314Z,1028.85245041
2018-10-12T01:25:56.697Z,1028.85245041
2018-10-12T01:26:09.110Z,1028.88631429
2018-10-12T01:26:21.541Z,1028.88631429
2018-10-12T01:26:33.974Z,1028.88631429
2018-10-12T01:26:46.374Z,1028.88631429
2018-10-12T01:26:58.774Z,1028.88631429
2018-10-12T01:27:11.193Z,1028.88631429
2018-10-12T01:27:24.683Z,1028.88631429
2018-10-12T01:27:37.088Z,1028.88631429
2018-10-12T01:27:49.486Z,1028.88631429
2018-10-12T01:28:01.893Z,1028.85245041
2018-10-12T01:28:14.297Z,1028.85245041
2018-10-12T01:28:26.693Z,1028.85245041
2018-10-12T01:28:39.064Z,1028.85245041
2018-10-12T01:28:52.080Z,1028.85245041
2018-10-12T01:29:04.505Z,1028.85245041
2018-10-12T01:29:16.929Z,1028.85245041
2018-10-12T01:29:29.342Z,1028.85245041
2018-10-12T01:29:41.733Z,1028.85245041
2018-10-12T01:29:54.296Z,1028.85245041
2018-10-12T01:30:06.713Z,1028.92017817
2018-10-12T01:30:19.135Z,1028.92017817
2018-10-12T01:30:31.544Z,1028.92017817
2018-10-12T01:30:43.954Z,1028.92017817
2018-10-12T01:30:56.356Z,1028.92017817
2018-10-12T01:31:08.893Z,1028.95404206
2018-10-12T01:31:21.288Z,1028.95404206
2018-10-12T01:31:33.700Z,1028.95404206
2018-10-12T01:31:46.093Z,1028.95404206
2018-10-12T01:31:58.551Z,1028.95404206
2018-10-12T01:32:10.947Z,1028.95404206
2018-10-12T01:32:23.388Z,1028.95404206
2018-10-12T01:32:35.813Z,1028.95404206
2018-10-12T01:32:48.266Z,1028.95404206
2018-10-12T01:33:00.707Z,1028.92017817
2018-10-12T01:33:13.129Z,1028.92017817
2018-10-12T01:33:25.548Z,1028.92017817
2018-10-12T01:33:37.968Z,1028.92017817
2018-10-12T01:33:50.526Z,1028.92017817
2018-10-12T01:34:02.972Z,1028.98790594
2018-10-12T01:34:15.369Z,1028.98790594
2018-10-12T01:34:27.767Z,1028.98790594
2018-10-12T01:34:40.152Z,1028.98790594
2018-10-12T01:34:52.671Z,1028.98790594
2018-10-12T01:35:05.064Z,1028.92017817
2018-10-12T01:35:17.525Z,1028.92017817
2018-10-12T01:35:29.915Z,1028.92017817
2018-10-12T01:35:42.447Z,1028.92017817
2018-10-12T01:35:54.837Z,1028.92017817
2018-10-12T01:36:07.353Z,1028.95404206
2018-10-12T01:36:19.746Z,1028.95404206
2018-10-12T01:36:32.149Z,1028.95404206
2018-10-12T01:36:44.529Z,1028.95404206
2018-10-12T01:36:56.914Z,1028.95404206
2018-10-12T01:37:09.298Z,1029.0556337
2018-10-12T01:37:21.688Z,1029.0556337
2018-10-12T01:37:34.080Z,1029.0556337
2018-10-12T01:37:46.494Z,1029.0556337
2018-10-12T01:37:58.897Z,1028.88631429
2018-10-12T01:38:11.309Z,1028.88631429
2018-10-12T01:38:23.718Z,1028.88631429
2018-10-12T01:38:36.169Z,1028.88631429
2018-10-12T01:38:48.570Z,1028.88631429
2018-10-12T01:39:00.963Z,1028.92017817
2018-10-12T01:39:13.377Z,1028.92017817
2018-10-12T01:39:25.760Z,1028.92017817
2018-10-12T01:39:38.440Z,1028.92017817
2018-10-12T01:39:50.820Z,1028.92017817
2018-10-12T01:40:03.232Z,1029.02176982
2018-10-12T01:40:15.623Z,1029.02176982
2018-10-12T01:40:28.031Z,1029.02176982
2018-10-12T01:40:40.446Z,1029.02176982
2018-10-12T01:40:52.854Z,1029.02176982
2018-10-12T01:41:05.268Z,1028.95404206
2018-10-12T01:41:17.638Z,1028.95404206
2018-10-12T01:41:30.052Z,1028.95404206
2018-10-12T01:41:42.452Z,1028.95404206
2018-10-12T01:41:54.922Z,1028.95404206
2018-10-12T01:42:07.341Z,1028.92017817
2018-10-12T01:42:19.740Z,1028.92017817
2018-10-12T01:42:32.129Z,1028.92017817
2018-10-12T01:42:44.569Z,1028.92017817
2018-10-12T01:42:56.970Z,1028.92017817
2018-10-12T01:43:09.367Z,1028.92017817
2018-10-12T01:43:21.867Z,1028.92017817
2018-10-12T01:43:34.280Z,1028.92017817
2018-10-12T01:43:46.714Z,1028.92017817
2018-10-12T01:43:59.124Z,1028.92017817
2018-10-12T01:44:11.523Z,1028.92017817
2018-10-12T01:44:23.924Z,1028.92017817
2018-10-12T01:44:36.735Z,1028.92017817
2018-10-12T01:44:49.125Z,1028.92017817
2018-10-12T01:45:01.675Z,1028.95404206
2018-10-12T01:45:14.097Z,1028.95404206
2018-10-12T01:45:26.497Z,1028.95404206
2018-10-12T01:45:38.895Z,1028.95404206
2018-10-12T01:45:51.294Z,1028.95404206
2018-10-12T01:46:03.686Z,1028.98790594
2018-10-12T01:46:16.578Z,1028.98790594
2018-10-12T01:46:28.985Z,1028.98790594
2018-10-12T01:46:41.373Z,1028.98790594
2018-10-12T01:46:53.770Z,1028.98790594
2018-10-12T01:47:06.208Z,1028.98790594
2018-10-12T01:47:18.593Z,1028.98790594
2018-10-12T01:47:30.980Z,1028.98790594
2018-10-12T01:47:43.429Z,1028.98790594
2018-10-12T01:47:55.823Z,1028.98790594
2018-10-12T01:48:08.188Z,1028.95404206
2018-10-12T01:48:20.579Z,1028.95404206
2018-10-12T01:48:32.960Z,1028.95404206
2018-10-12T01:48:45.336Z,1028.95404206
2018-10-12T01:48:57.766Z,1028.95404206
2018-10-12T01:49:10.167Z,1028.98790594
2018-10-12T01:49:22.562Z,1028.98790594
2018-10-12T01:49:35.114Z,1028.98790594
2018-10-12T01:49:47.525Z,1028.98790594
2018-10-12T01:49:59.981Z,1029.08949758
2018-10-12T01:50:12.364Z,1029.08949758
2018-10-12T01:50:24.762Z,1029.08949758
2018-10-12T01:50:37.149Z,1029.08949758
2018-10-12T01:50:49.544Z,1029.08949758
2018-10-12T01:51:01.939Z,1029.08949758
2018-10-12T01:51:14.332Z,1029.08949758
2018-10-12T01:51:26.733Z,1029.08949758
2018-10-12T01:51:39.113Z,1029.08949758
2018-10-12T01:51:51.481Z,1029.08949758
2018-10-12T01:52:03.864Z,1029.19108923
2018-10-12T01:52:16.280Z,1029.19108923
2018-10-12T01:52:28.669Z,1029.19108923
2018-10-12T01:52:41.056Z,1029.19108923
2018-10-12T01:52:53.455Z,1029.19108923
2018-10-12T01:53:05.843Z,1029.0556337
2018-10-12T01:53:18.251Z,1029.0556337
2018-10-12T01:53:30.655Z,1029.0556337
2018-10-12T01:53:43.046Z,1029.0556337
2018-10-12T01:53:55.448Z,1029.0556337
2018-10-12T01:54:07.834Z,1029.0556337
2018-10-12T01:54:20.213Z,1029.0556337
2018-10-12T01:54:32.648Z,1029.0556337
2018-10-12T01:54:45.046Z,1029.0556337
2018-10-12T01:54:57.432Z,1029.0556337
2018-10-12T01:55:10.304Z,1029.08949758
2018-10-12T01:55:22.707Z,1029.08949758
2018-10-12T01:55:35.171Z,1029.08949758
2018-10-12T01:55:47.870Z,1029.08949758
2018-10-12T01:56:00.278Z,1028.95404206
2018-10-12T01:56:12.692Z,1028.95404206
2018-10-12T01:56:25.093Z,1028.95404206
2018-10-12T01:56:37.485Z,1028.95404206
2018-10-12T01:56:49.908Z,1028.95404206
2018-10-12T01:57:02.308Z,1029.08949758
2018-10-12T01:57:14.710Z,1029.08949758
2018-10-12T01:57:27.104Z,1029.08949758
2018-10-12T01:57:39.532Z,1029.08949758
2018-10-12T01:57:51.933Z,1029.08949758
2018-10-12T01:58:04.648Z,1029.12336146
2018-10-12T01:58:17.062Z,1029.12336146
2018-10-12T01:58:29.457Z,1029.12336146
2018-10-12T01:58:42.028Z,1029.12336146
2018-10-12T01:58:54.442Z,1029.12336146
2018-10-12T01:59:06.842Z,1029.0556337
2018-10-12T01:59:19.221Z,1029.0556337
2018-10-12T01:59:31.614Z,1029.0556337
2018-10-12T01:59:44.013Z,1029.0556337
2018-10-12T01:59:56.403Z,1029.0556337
2018-10-12T02:00:08.805Z,1029.08949758
2018-10-12T02:00:21.215Z,1029.08949758
2018-10-12T02:00:33.646Z,1029.08949758
2018-10-12T02:00:46.067Z,1029.08949758
2018-10-12T02:00:58.487Z,1029.08949758
2018-10-12T02:01:10.954Z,1029.12336146
2018-10-12T02:01:23.408Z,1029.12336146
2018-10-12T02:01:35.861Z,1029.12336146
2018-10-12T02:01:48.316Z,1029.12336146
2018-10-12T02:02:00.719Z,1029.02176982
2018-10-12T02:02:13.123Z,1029.02176982
2018-10-12T02:02:25.520Z,1029.02176982
2018-10-12T02:02:37.917Z,1029.02176982
2018-10-12T02:02:50.330Z,1029.02176982
2018-10-12T02:03:02.800Z,1029.02176982
2018-10-12T02:03:15.200Z,1029.02176982
2018-10-12T02:03:27.649Z,1029.02176982
2018-10-12T02:03:40.054Z,1029.02176982
2018-10-12T02:03:52.482Z,1029.02176982
2018-10-12T02:04:05.173Z,1029.12336146
2018-10-12T02:04:17.577Z,1029.12336146
2018-10-12T02:04:29.966Z,1029.12336146
2018-10-12T02:04:42.373Z,1029.12336146
2018-10-12T02:04:54.857Z,1029.12336146
2018-10-12T02:05:07.256Z,1029.0556337
2018-10-12T02:05:19.684Z,1029.0556337
2018-10-12T02:05:32.266Z,1029.0556337
2018-10-12T02:05:44.663Z,1029.0556337
2018-10-12T02:05:57.042Z,1029.0556337
2018-10-12T02:06:09.429Z,1028.98790594
2018-10-12T02:06:21.839Z,1028.98790594
2018-10-12T02:06:34.256Z,1028.98790594
2018-10-12T02:06:46.647Z,1028.98790594
2018-10-12T02:06:59.034Z,1029.08949758
2018-10-12T02:07:11.434Z,1029.08949758
2018-10-12T02:07:23.822Z,1029.08949758